createdAt,value
2023-04-09T00:01:23.044Z,27.75
2023-04-09T00:06:45.962Z,28.02
2023-04-09T00:12:08.223Z,28.80
2023-04-09T00:17:30.619Z,26.65
2023-04-09T00:22:52.934Z,25.75
2023-04-09T00:28:16.140Z,23.75
2023-04-09T00:33:38.413Z,25.55
2023-04-09T00:39:00.969Z,24.40
2023-04-09T00:44:23.353Z,25.48
2023-04-09T00:49:46.384Z,24.50
2023-04-09T00:55:11.719Z,26.62
2023-04-09T01:00:34.150Z,26.45
2023-04-09T01:06:16.573Z,27.65
2023-04-09T01:12:07.995Z,26.57
2023-04-09T01:17:35.172Z,24.60
2023-04-09T01:23:25.474Z,22.82
2023-04-09T01:28:54.967Z,24.90
2023-04-09T01:34:19.974Z,24.12
2023-04-09T01:39:43.701Z,26.17
2023-04-09T01:45:06.683Z,24.77
2023-04-09T01:50:29.473Z,24.85
2023-04-09T01:55:52.303Z,24.40
2023-04-09T02:01:19.537Z,24.65
2023-04-09T02:06:46.721Z,23.40
2023-04-09T02:12:23.487Z,25.13
2023-04-09T02:17:45.930Z,27.93
2023-04-09T02:23:08.576Z,27.00
2023-04-09T02:28:31.374Z,26.90
2023-04-09T02:33:54.568Z,26.10
2023-04-09T02:39:16.965Z,27.73
2023-04-09T02:44:39.268Z,24.63
2023-04-09T02:50:01.697Z,27.37
2023-04-09T02:55:24.791Z,26.90
2023-04-09T03:00:47.076Z,27.97
2023-04-09T03:06:10.115Z,26.43
2023-04-09T03:11:32.541Z,23.73
2023-04-09T03:16:54.840Z,26.55
2023-04-09T03:22:17.241Z,26.17
2023-04-09T03:27:39.508Z,25.43
2023-04-09T03:33:01.802Z,26.15
2023-04-09T03:38:24.087Z,26.07
2023-04-09T03:43:46.742Z,26.43
2023-04-09T03:49:09.106Z,26.30
2023-04-09T03:54:31.543Z,27.47
2023-04-09T03:59:53.788Z,27.58
2023-04-09T04:05:16.469Z,26.33
2023-04-09T04:10:40.208Z,28.12
2023-04-09T04:16:02.482Z,25.97
2023-04-09T04:21:28.064Z,26.75
2023-04-09T04:26:50.728Z,24.18
2023-04-09T04:32:12.991Z,27.07
2023-04-09T04:37:36.222Z,25.40
2023-04-09T04:42:58.547Z,25.95
2023-04-09T04:48:21.310Z,24.03
2023-04-09T04:53:43.790Z,25.88
2023-04-09T04:59:07.019Z,24.67
2023-04-09T05:04:29.334Z,23.47
2023-04-09T05:09:51.605Z,22.73
2023-04-09T05:15:14.410Z,24.67
2023-04-09T05:20:37.213Z,25.02
2023-04-09T05:26:02.269Z,26.55
2023-04-09T05:31:24.674Z,25.07
2023-04-09T05:36:46.974Z,27.73
2023-04-09T05:42:09.277Z,26.40
2023-04-09T05:47:31.818Z,27.65
2023-04-09T05:52:54.248Z,27.23
2023-04-09T05:58:22.339Z,28.40
2023-04-09T06:03:44.800Z,27.63
2023-04-09T06:09:07.394Z,27.15
2023-04-09T06:14:29.831Z,26.85
2023-04-09T06:19:52.699Z,25.77
2023-04-09T06:25:15.069Z,24.20
2023-04-09T06:30:37.884Z,24.82
2023-04-09T06:36:01.031Z,22.82
2023-04-09T06:41:23.305Z,23.77
2023-04-09T06:46:45.587Z,22.10
2023-04-09T06:52:08.200Z,22.27
2023-04-09T06:57:32.682Z,23.57
2023-04-09T07:02:57.589Z,23.62
2023-04-09T07:08:20.112Z,21.07
2023-04-09T07:13:42.363Z,23.03
2023-04-09T07:19:06.293Z,23.18
2023-04-09T07:24:28.623Z,21.00
2023-04-09T07:29:51.444Z,18.67
2023-04-09T07:35:15.971Z,19.37
2023-04-09T07:40:38.392Z,18.47
2023-04-09T07:46:03.331Z,16.93
2023-04-09T07:51:25.636Z,18.03
2023-04-09T07:56:47.893Z,15.80
2023-04-09T08:02:13.405Z,15.98
2023-04-09T08:07:35.188Z,14.97
2023-04-09T08:12:57.427Z,15.35
2023-04-09T08:18:19.751Z,14.60
2023-04-09T08:23:42.245Z,15.72
2023-04-09T08:29:04.638Z,16.10
2023-04-09T08:34:26.966Z,14.93
2023-04-09T08:39:49.341Z,15.50
2023-04-09T08:45:12.152Z,15.90
2023-04-09T08:50:37.280Z,16.23
2023-04-09T08:56:00.315Z,38.00
2023-04-09T09:01:33.963Z,16.30
2023-04-09T09:06:58.337Z,14.27
2023-04-09T09:12:22.357Z,14.47
2023-04-09T09:17:46.918Z,28.67
2023-04-09T09:23:10.257Z,15.10
2023-04-09T09:28:32.983Z,14.67
2023-04-09T09:33:55.576Z,14.83
2023-04-09T09:39:19.417Z,12.78
2023-04-09T09:44:51.810Z,13.70
2023-04-09T09:50:14.815Z,14.80
2023-04-09T09:55:39.364Z,15.50
2023-04-09T10:01:03.842Z,14.70
2023-04-09T10:06:27.981Z,14.40
2023-04-09T10:11:52.350Z,13.85
2023-04-09T10:17:15.351Z,13.38
2023-04-09T10:22:40.824Z,14.37
2023-04-09T10:28:14.668Z,15.80
2023-04-09T10:33:40.184Z,15.37
2023-04-09T10:39:05.477Z,14.70
2023-04-09T10:44:44.853Z,16.37
2023-04-09T10:50:24.405Z,28.57
2023-04-09T10:55:54.605Z,14.30
2023-04-09T11:06:36.358Z,14.05
2023-04-09T11:12:01.420Z,17.80
2023-04-09T11:17:23.747Z,17.10
2023-04-09T11:22:47.646Z,16.57
2023-04-09T11:28:10.766Z,18.57
2023-04-09T11:33:37.987Z,18.30
2023-04-09T11:39:01.789Z,18.15
2023-04-09T11:44:24.695Z,17.12
2023-04-09T11:49:47.575Z,16.82
2023-04-09T11:55:13.255Z,17.15
2023-04-09T12:00:36.286Z,17.32
2023-04-09T12:06:00.152Z,17.12
2023-04-09T12:11:31.674Z,17.90
2023-04-09T12:16:56.339Z,16.57
2023-04-09T12:22:18.936Z,17.02
2023-04-09T12:27:41.209Z,17.00
2023-04-09T12:33:04.897Z,17.57
2023-04-09T12:38:27.749Z,17.10
2023-04-09T12:43:50.127Z,19.17
2023-04-09T12:49:12.975Z,19.27
2023-04-09T12:54:35.255Z,19.17
2023-04-09T12:59:57.529Z,19.37
2023-04-09T13:05:20.458Z,17.98
2023-04-09T13:10:43.862Z,17.55
2023-04-09T13:16:06.716Z,18.82
2023-04-09T13:21:29.792Z,18.45
2023-04-09T13:26:52.768Z,19.37
2023-04-09T13:32:15.944Z,15.55
2023-04-09T13:37:38.188Z,18.07
2023-04-09T13:43:01.679Z,16.95
2023-04-09T13:48:25.716Z,16.62
2023-04-09T13:53:48.598Z,16.90
2023-04-09T13:59:11.470Z,15.90
2023-04-09T14:04:33.965Z,16.97
2023-04-09T14:09:56.567Z,16.80
2023-04-09T14:15:19.333Z,16.97
2023-04-09T14:20:41.650Z,18.60
2023-04-09T14:26:04.881Z,16.50
2023-04-09T14:31:27.185Z,16.85
2023-04-09T14:36:49.473Z,17.07
2023-04-09T14:42:13.363Z,24.90
2023-04-09T14:47:35.747Z,16.07
2023-04-09T14:52:58.579Z,15.08
2023-04-09T14:58:22.758Z,15.83
2023-04-09T15:03:45.398Z,15.43
2023-04-09T15:09:08.088Z,15.18
2023-04-09T15:14:31.541Z,16.15
2023-04-09T15:19:53.847Z,15.55
2023-04-09T15:25:16.748Z,16.60
2023-04-09T15:30:39.147Z,14.38
2023-04-09T15:36:01.407Z,13.32
2023-04-09T15:41:24.321Z,12.70
2023-04-09T15:46:47.022Z,13.60
2023-04-09T15:52:09.329Z,13.30
2023-04-09T15:57:31.749Z,13.20
2023-04-09T16:02:54.362Z,12.68
2023-04-09T16:08:16.628Z,13.50
2023-04-09T16:13:39.832Z,12.35
2023-04-09T16:19:02.514Z,11.97
2023-04-09T16:24:25.741Z,16.97
2023-04-09T16:29:47.985Z,13.43
2023-04-09T16:35:10.295Z,12.18
2023-04-09T16:40:33.041Z,11.65
2023-04-09T16:45:55.784Z,11.45
2023-04-09T16:51:18.516Z,10.13
2023-04-09T16:56:41.096Z,10.45
2023-04-09T17:02:04.091Z,10.03
2023-04-09T17:07:27.343Z,11.68
2023-04-09T17:12:50.924Z,11.28
2023-04-09T17:18:13.149Z,11.93
2023-04-09T17:23:35.463Z,11.95
2023-04-09T17:28:57.722Z,65.45
2023-04-09T17:34:20.433Z,13.53
2023-04-09T17:39:43.220Z,16.25
2023-04-09T17:45:06.111Z,18.25
2023-04-09T17:50:28.474Z,18.20
2023-04-09T17:55:54.314Z,18.62
2023-04-09T18:01:18.368Z,16.67
2023-04-09T18:06:40.845Z,16.87
2023-04-09T18:12:03.542Z,16.40
2023-04-09T18:17:26.888Z,15.90
2023-04-09T18:22:49.494Z,14.50
2023-04-09T18:28:11.945Z,13.65
2023-04-09T18:33:34.588Z,14.35
2023-04-09T18:38:58.364Z,15.13
2023-04-09T18:44:22.086Z,15.30
2023-04-09T18:49:45.331Z,15.13
2023-04-09T18:55:07.702Z,15.58
2023-04-09T19:00:30.262Z,14.78
2023-04-09T19:05:52.990Z,15.95
2023-04-09T19:11:15.864Z,16.52
2023-04-09T19:16:38.768Z,13.88
2023-04-09T19:22:02.109Z,13.60
2023-04-09T19:27:25.032Z,18.37
2023-04-09T19:32:47.455Z,15.65
2023-04-09T19:38:09.763Z,14.70
2023-04-09T19:43:32.523Z,10.98
2023-04-09T19:48:56.947Z,11.12
2023-04-09T19:54:19.511Z,10.65
2023-04-09T19:59:42.287Z,10.08
2023-04-09T20:05:04.576Z,9.23
2023-04-09T20:10:28.286Z,7.28
2023-04-09T20:15:50.495Z,6.20
2023-04-09T20:21:14.612Z,5.65
2023-04-09T20:26:37.440Z,26.45
2023-04-09T20:31:59.793Z,6.20
2023-04-09T20:37:22.160Z,5.20
2023-04-09T20:42:45.560Z,5.45
2023-04-09T20:48:08.799Z,4.42
2023-04-09T20:53:31.553Z,4.58
2023-04-09T20:58:54.460Z,5.17
2023-04-09T21:04:17.376Z,17.23
2023-04-09T21:09:39.835Z,5.25
2023-04-09T21:15:02.120Z,5.50
2023-04-09T21:20:25.023Z,5.62
2023-04-09T21:25:47.829Z,4.65
2023-04-09T21:31:10.234Z,4.30
2023-04-09T21:36:34.783Z,4.40
2023-04-09T21:41:57.489Z,4.10
2023-04-09T21:47:19.723Z,4.15
2023-04-09T21:52:43.133Z,4.30
2023-04-09T21:58:06.327Z,4.10
2023-04-09T22:03:29.317Z,4.00
2023-04-09T22:08:55.982Z,4.50
2023-04-09T22:14:17.120Z,4.42
2023-04-09T22:19:40.928Z,4.08
2023-04-09T22:25:03.292Z,4.15
2023-04-09T22:30:26.677Z,4.67
2023-04-09T22:35:49.376Z,4.55
2023-04-09T22:41:13.327Z,4.78
2023-04-09T22:46:35.704Z,4.83
2023-04-09T22:51:58.272Z,4.35
2023-04-09T22:57:20.558Z,5.30
2023-04-09T23:02:44.122Z,5.92
2023-04-09T23:08:06.562Z,5.60
2023-04-09T23:13:29.847Z,5.85
2023-04-09T23:18:53.477Z,6.15
2023-04-09T23:24:16.267Z,6.47
2023-04-09T23:29:38.505Z,6.40
2023-04-09T23:35:01.727Z,5.80
2023-04-09T23:40:24.940Z,5.83
2023-04-09T23:45:48.924Z,5.45
2023-04-09T23:51:11.440Z,5.22
2023-04-09T23:56:34.658Z,5.72
